Pride Of Kent — MQCJ2 — position and weather

sailwx.info

Track history (hours):
 
Tides and Currents Weather Stations Pressure Air Temp Water Temp Dewpoint Dewpoint Depression Visibility Wind Speed Wind Dir Waves Ship Positions

Pride Of Kent

Operator: P & O Ferries

Last reported at 2016-Aug-28 04:32 UTC. Time now 2016-Aug-28 05:09 UTC.
Position N 51°07' E 001°20'.

Length 180 m; draft 6 m.

Type: Passenger vessel. MMSI: 232009000.

Date/timePositionNaut miles runAvg speedWind from/ knotsBaromVisibWave heightAir tempDewpointWater temp
2016-Aug-28 04:32N 51°07' E 001°20'8 8.6
2016-Aug-28 03:33N 51°05' E 001°33'1313.3
2016-Aug-28 02:33N 50°58' E 001°51'0 0.0
2016-Aug-28 01:33N 50°58' E 001°51'1313.2
2016-Aug-28 00:33N 51°02' E 001°31'9 8.6
2016-Aug-27 23:33N 51°07' E 001°20'9 8.6
2016-Aug-27 22:34N 51°04' E 001°33'1313.0
2016-Aug-27 21:33N 50°58' E 001°51'0 0.0
2016-Aug-27 20:33N 50°58' E 001°51'1616.2
2016-Aug-27 19:33N 51°05' E 001°28'5 5.4
2016-Aug-27 18:33N 51°07' E 001°20'1413.8
2016-Aug-27 17:34N 51°01' E 001°39'8 7.9
2016-Aug-27 16:33N 50°58' E 001°51'8 8.0
2016-Aug-27 15:34N 50°58' E 001°38'9 4.7
2016-Aug-27 13:33N 51°05' E 001°29'1615.8
2016-Aug-27 12:33N 50°58' E 001°51'0 0.1
2016-Aug-27 11:33N 50°58' E 001°51'1716.5
2016-Aug-27 10:33N 51°04' E 001°27'5 3.9
2016-Aug-27 09:15N 51°07' E 001°20'1015.1
2016-Aug-27 08:34N 51°02' E 001°35'1111.1
2016-Aug-27 07:33N 50°58' E 001°51'7 6.5
2016-Aug-27 06:33N 50°58' E 001°41'16 7.8
2016-Aug-27 04:30N 51°07' E 001°20'7 7.8
2016-Aug-27 03:33N 51°04' E 001°31'1414.2
2016-Aug-27 02:33N 50°58' E 001°51'0 0.0
2016-Aug-27 01:33N 50°58' E 001°51'9 9.3
2016-Aug-27 00:33N 51°01' E 001°37'1312.6
2016-Aug-26 23:33N 51°07' E 001°20'6 5.9
2016-Aug-26 22:34N 51°05' E 001°29'1615.6
2016-Aug-26 21:33N 50°58' E 001°51'0 0.1
2016-Aug-26 20:33N 50°58' E 001°51'1817.8
2016-Aug-26 19:33N 51°05' E 001°25'4 3.7
2016-Aug-26 18:33N 51°07' E 001°20'1515.2
2016-Aug-26 17:33N 50°60' E 001°41'7 6.6
2016-Aug-26 16:34N 50°58' E 001°51'1110.6
2016-Aug-26 15:33N 51°01' E 001°35'1111.3
2016-Aug-26 14:33N 51°07' E 001°20'6 6.0
2016-Aug-26 13:33N 51°05' E 001°29'1615.6
2016-Aug-26 12:33N 50°58' E 001°51'2 1.5
2016-Aug-26 11:33N 50°58' E 001°49'1817.5
2016-Aug-26 10:34N 51°06' E 001°23'3 2.6
2016-Aug-26 09:33N 51°07' E 001°20'1313.1
2016-Aug-26 08:33N 51°02' E 001°39'9 8.5
2016-Aug-26 07:33N 50°58' E 001°51'5 4.8
2016-Aug-26 06:33N 50°58' E 001°43'17 8.4
2016-Aug-26 04:29N 51°07' E 001°20'7 7.1
2016-Aug-26 03:33N 51°06' E 001°30'1515.0
2016-Aug-26 02:34N 50°58' E 001°51'2 1.7
2016-Aug-26 01:33N 50°58' E 001°48'1616.0
2016-Aug-26 00:33N 51°05' E 001°25'4 3.9
2016-Aug-25 23:33N 51°07' E 001°20'1414.4
2016-Aug-25 22:33N 51°00' E 001°40'7 7.3
2016-Aug-25 21:33N 50°58' E 001°51'1010.0
2016-Aug-25 20:33N 51°01' E 001°36'1211.1
2016-Aug-25 19:30N 51°07' E 001°20'6 5.9
2016-Aug-25 18:33N 51°06' E 001°29'1515.5
2016-Aug-25 17:34N 50°58' E 001°50'1 0.7
2016-Aug-25 16:33N 50°58' E 001°51'1616.1
2016-Aug-25 15:33N 51°04' E 001°27'5 5.4
2016-Aug-25 14:33N 51°07' E 001°20'1010.0
2016-Aug-25 13:34N 51°03' E 001°34'1211.6
2016-Aug-25 12:33N 50°58' E 001°51'4 4.2
2016-Aug-25 11:34N 50°58' E 001°44'1414.5
2016-Aug-25 10:33N 51°05' E 001°24'3 3.4
2016-Aug-25 09:33N 51°07' E 001°20'1212.4
2016-Aug-25 08:34N 51°01' E 001°37'9 9.3
2016-Aug-25 07:33N 50°58' E 001°51'6 6.2
2016-Aug-25 06:34N 50°58' E 001°41'16 8.2
2016-Aug-25 04:33N 51°07' E 001°20'9 8.8
2016-Aug-25 03:34N 51°04' E 001°33'1312.9
2016-Aug-25 02:34N 50°58' E 001°51'0 0.0
2016-Aug-25 01:33N 50°58' E 001°51'1313.3
2016-Aug-25 00:34N 51°03' E 001°31'9 8.4
2016-Aug-24 23:33N 51°07' E 001°20'7 6.8
2016-Aug-24 22:33N 51°05' E 001°30'1514.9
2016-Aug-24 21:33N 50°58' E 001°51'0 0.0
2016-Aug-24 20:33N 50°58' E 001°51'1615.9
2016-Aug-24 19:34N 51°04' E 001°28'6 5.4
2016-Aug-24 18:29N 51°07' E 001°20'1415.4
2016-Aug-24 17:33N 51°00' E 001°40'7 7.3
2016-Aug-24 16:34N 50°58' E 001°51'9 9.0
2016-Aug-24 15:33N 51°00' E 001°37'1312.3
2016-Aug-24 14:30N 51°07' E 001°20'5 4.8
2016-Aug-24 13:33N 51°06' E 001°27'1717.0
2016-Aug-24 12:33N 50°58' E 001°51'0 0.0
2016-Aug-24 11:33N 50°58' E 001°51'1616.4
2016-Aug-24 10:34N 51°04' E 001°27'5 4.3
2016-Aug-24 09:20N 51°07' E 001°20'810.7
2016-Aug-24 08:33N 51°04' E 001°32'1313.3
2016-Aug-24 07:33N 50°58' E 001°51'4 3.6
2016-Aug-24 06:34N 50°58' E 001°45'18 8.9
2016-Aug-24 04:29N 51°07' E 001°20'7 7.9
2016-Aug-24 03:33N 51°05' E 001°31'1414.2
2016-Aug-24 02:33N 50°58' E 001°51'0 0.1
2016-Aug-24 01:33N 50°58' E 001°51'1717.1
2016-Aug-24 00:33N 51°04' E 001°25'5 4.7
2016-Aug-23 23:32N 51°07' E 001°20'1616.5
2016-Aug-23 22:33N 50°59' E 001°42'6 5.9
2016-Aug-23 21:33N 50°58' E 001°51'1010.2
2016-Aug-23 20:33N 50°57' E 001°35'1413.3
2016-Aug-23 19:31N 51°07' E 001°20'0 0.3
2016-Aug-23 18:33N 51°07' E 001°21'1818.0
2016-Aug-23 17:34N 50°58' E 001°45'4 3.7
2016-Aug-23 16:33N 50°58' E 001°51'9 9.0
2016-Aug-23 15:33N 50°59' E 001°37'1313.1
2016-Aug-23 14:32N 51°07' E 001°20'5 4.9
2016-Aug-23 13:33N 51°06' E 001°28'1716.7
2016-Aug-23 12:34N 50°58' E 001°51'1 0.5
2016-Aug-23 11:33N 50°58' E 001°50'1716.7
2016-Aug-23 10:34N 51°05' E 001°26'4 3.8
2016-Aug-23 09:27N 51°07' E 001°20'1111.9
2016-Aug-23 08:34N 51°01' E 001°34'1111.3
2016-Aug-23 07:33N 50°58' E 001°51'7 6.6
2016-Aug-23 06:33N 50°58' E 001°41'1615.7
2016-Aug-23 05:33N 51°07' E 001°20'0 0.0
2016-Aug-23 04:33N 51°07' E 001°20'7 6.6
2016-Aug-23 03:34N 51°06' E 001°30'1515.1
2016-Aug-23 02:34N 50°58' E 001°51'0 0.1
2016-Aug-23 01:34N 50°58' E 001°51'1717.4
2016-Aug-23 00:33N 51°04' E 001°25'5 4.7
2016-Aug-22 23:33N 51°07' E 001°20'1313.0
2016-Aug-22 22:34N 51°01' E 001°38'9 8.7
2016-Aug-22 21:33N 50°58' E 001°51'8 7.6
2016-Aug-22 20:33N 50°59' E 001°39'1514.8
2016-Aug-22 19:34N 51°07' E 001°20'3 3.1
2016-Aug-22 18:34N 51°07' E 001°25'1817.6
2016-Aug-22 17:34N 50°58' E 001°50'1 0.8
2016-Aug-22 16:33N 50°58' E 001°51'1716.6
2016-Aug-22 15:34N 51°06' E 001°27'5 4.9
2016-Aug-22 14:33N 51°07' E 001°20'8 8.1
2016-Aug-22 13:34N 51°04' E 001°31'1312.8
2016-Aug-22 12:30N 50°58' E 001°51'2 1.9
2016-Aug-22 11:33N 50°58' E 001°48'1817.7
2016-Aug-22 10:34N 51°06' E 001°23'2 2.2
2016-Aug-22 09:32N 51°07' E 001°20'1312.9
2016-Aug-22 08:33N 51°01' E 001°38'9 9.0
2016-Aug-22 07:33N 50°58' E 001°51'5 5.1
2016-Aug-22 06:33N 50°58' E 001°43'1717.0
2016-Aug-22 05:33N 51°07' E 001°20'0 0.0
2016-Aug-22 04:33N 51°07' E 001°20'1111.4
2016-Aug-22 03:33N 51°03' E 001°37'1110.6
2016-Aug-22 02:33N 50°58' E 001°51'2 2.0
2016-Aug-22 01:34N 50°58' E 001°48'2019.3
2016-Aug-22 00:33N 51°07' E 001°21'0 0.3
2016-Aug-21 23:33N 51°07' E 001°20'1615.8
2016-Aug-21 22:33N 50°59' E 001°42'6 6.1
2016-Aug-21 21:33N 50°58' E 001°51'1010.5
2016-Aug-21 20:34N 50°59' E 001°34'1311.3
2016-Aug-21 19:27N 51°07' E 001°20'4 5.1
2016-Aug-21 18:34N 51°06' E 001°27'1717.0
2016-Aug-21 17:34N 50°58' E 001°51'0 0.1
2016-Aug-21 16:33N 50°58' E 001°51'1817.6
2016-Aug-21 15:34N 51°05' E 001°25'4 3.4
2016-Aug-21 14:26N 51°07' E 001°20'1213.4
2016-Aug-21 13:34N 51°03' E 001°37'10 9.1
2016-Aug-21 12:28N 50°58' E 001°51'3 3.6
2016-Aug-21 11:33N 50°58' E 001°46'1818.4
2016-Aug-21 10:33N 51°07' E 001°21'0 0.3
2016-Aug-21 09:33N 51°07' E 001°20'1515.0
2016-Aug-21 08:33N 50°60' E 001°41'7 6.8
2016-Aug-21 07:33N 50°58' E 001°51'9 9.3
2016-Aug-21 06:33N 50°58' E 001°36'14 4.7
2016-Aug-21 03:32N 51°07' E 001°20'0 0.0
2016-Aug-21 02:32N 51°07' E 001°20'0 0.0
2016-Aug-21 01:30N 51°07' E 001°20'8 8.2
2016-Aug-21 00:34N 51°05' E 001°32'1413.9
2016-Aug-20 23:33N 50°58' E 001°51'2 1.7
2016-Aug-20 22:33N 50°58' E 001°48'1717.1
2016-Aug-20 21:34N 51°06' E 001°24'3 2.9
2016-Aug-20 20:33N 51°07' E 001°20'1212.3
2016-Aug-20 19:34N 51°01' E 001°36'10 9.6
2016-Aug-20 18:33N 50°58' E 001°51'3 2.7
2016-Aug-20 17:33N 50°58' E 001°47'1818.3
2016-Aug-20 16:33N 51°07' E 001°21'1 0.6
2016-Aug-20 15:26N 51°07' E 001°20'3 3.8
2016-Aug-20 14:33N 51°08' E 001°25'1110.6
2016-Aug-20 13:33N 51°01' E 001°38'8 7.7
2016-Aug-20 12:28N 50°58' E 001°51'6 6.5
2016-Aug-20 11:33N 50°58' E 001°42'1612.5
2016-Aug-20 10:16N 51°07' E 001°20'0 0.1
2016-Aug-20 09:30N 51°07' E 001°20'1212.9
2016-Aug-20 08:34N 51°02' E 001°38'9 9.2
2016-Aug-20 07:33N 50°58' E 001°51'5 5.5
2016-Aug-20 06:33N 50°58' E 001°42'1716.5
2016-Aug-20 05:33N 51°07' E 001°20'0 0.0
2016-Aug-20 04:24N 51°07' E 001°20'1112.8
2016-Aug-20 03:33N 51°02' E 001°35'1110.8
2016-Aug-20 02:33N 50°58' E 001°51'1 1.3
2016-Aug-20 01:34N 50°58' E 001°49'1918.7
2016-Aug-20 00:33N 51°07' E 001°22'2 1.4
2016-Aug-19 23:27N 51°07' E 001°20'1112.7
2016-Aug-19 22:34N 51°01' E 001°34'1110.7
2016-Aug-19 21:33N 50°58' E 001°51'6 6.4
2016-Aug-19 20:33N 50°59' E 001°41'1615.5
2016-Aug-19 19:33N 51°07' E 001°20'0 0.0
2016-Aug-19 18:32N 51°07' E 001°20'1616.4
2016-Aug-19 17:34N 50°59' E 001°42'6 5.6
2016-Aug-19 16:33N 50°58' E 001°51'1211.8
2016-Aug-19 15:33N 51°01' E 001°33'10 8.7
2016-Aug-19 14:24N 51°07' E 001°20'5 5.5
2016-Aug-19 13:33N 51°07' E 001°27'1616.3
2016-Aug-19 12:33N 50°58' E 001°49'1 1.2
2016-Aug-19 11:33N 50°58' E 001°51'1615.9
2016-Aug-19 10:33N 51°04' E 001°27'6 5.9
2016-Aug-19 09:33N 51°07' E 001°20'1010.4
2016-Aug-19 08:33N 51°03' E 001°35'1111.2
2016-Aug-19 07:33N 50°58' E 001°51'5 5.1
2016-Aug-19 06:33N 50°58' E 001°43'1716.3
2016-Aug-19 05:31N 51°07' E 001°20'0 0.0
2016-Aug-19 04:33N 51°07' E 001°20'8 7.7
2016-Aug-19 03:33N 51°05' E 001°32'1413.9
2016-Aug-19 02:34N 50°58' E 001°51'0 0.1
2016-Aug-19 01:33N 50°58' E 001°51'1313.4
2016-Aug-19 00:33N 51°03' E 001°31'8 8.4
2016-Aug-18 23:33N 51°07' E 001°20'8 8.3
2016-Aug-18 22:33N 51°04' E 001°32'1313.3
2016-Aug-18 21:33N 50°58' E 001°51'1 1.2
2016-Aug-18 20:34N 50°58' E 001°49'1817.6
2016-Aug-18 19:34N 51°05' E 001°23'3 2.8
2016-Aug-18 18:32N 51°07' E 001°20'1616.6
2016-Aug-18 17:33N 50°59' E 001°42'6 5.7
2016-Aug-18 16:34N 50°58' E 001°51'1111.1
2016-Aug-18 15:34N 51°00' E 001°34'1111.2
2016-Aug-18 14:33N 51°07' E 001°20'4 3.6
2016-Aug-18 13:33N 51°07' E 001°26'1717.4
2016-Aug-18 12:34N 50°58' E 001°50'1 0.6
2016-Aug-18 11:33N 50°58' E 001°51'1717.5
2016-Aug-18 10:33N 51°05' E 001°25'4 4.2
2016-Aug-18 09:33N 51°07' E 001°20'1111.0
2016-Aug-18 08:34N 51°02' E 001°35'1110.6
2016-Aug-18 07:33N 50°58' E 001°51'5 5.2
2016-Aug-18 06:34N 50°58' E 001°43'1715.4
2016-Aug-18 05:27N 51°07' E 001°20'  
Track history (hours):
 
Tides and Currents Weather Stations Pressure Air Temp Water Temp Dewpoint Dewpoint Depression Visibility Wind Speed Wind Dir Waves Ship Positions

Pride Of Kent

Operator: P & O Ferries

Last reported at 2016-Aug-28 04:32 UTC. Time now 2016-Aug-28 05:09 UTC.
Position N 51°07' E 001°20'.

Length 180 m; draft 6 m.

Type: Passenger vessel. MMSI: 232009000.

Date/timePositionNaut miles runAvg speedWind from/ knotsBaromVisibWave heightAir tempDewpointWater temp
2016-Aug-28 04:32N 51°07' E 001°20'8 8.6
2016-Aug-28 03:33N 51°05' E 001°33'1313.3
2016-Aug-28 02:33N 50°58' E 001°51'0 0.0
2016-Aug-28 01:33N 50°58' E 001°51'1313.2
2016-Aug-28 00:33N 51°02' E 001°31'9 8.6
2016-Aug-27 23:33N 51°07' E 001°20'9 8.6
2016-Aug-27 22:34N 51°04' E 001°33'1313.0
2016-Aug-27 21:33N 50°58' E 001°51'0 0.0
2016-Aug-27 20:33N 50°58' E 001°51'1616.2
2016-Aug-27 19:33N 51°05' E 001°28'5 5.4
2016-Aug-27 18:33N 51°07' E 001°20'1413.8
2016-Aug-27 17:34N 51°01' E 001°39'8 7.9
2016-Aug-27 16:33N 50°58' E 001°51'8 8.0
2016-Aug-27 15:34N 50°58' E 001°38'9 4.7
2016-Aug-27 13:33N 51°05' E 001°29'1615.8
2016-Aug-27 12:33N 50°58' E 001°51'0 0.1
2016-Aug-27 11:33N 50°58' E 001°51'1716.5
2016-Aug-27 10:33N 51°04' E 001°27'5 3.9
2016-Aug-27 09:15N 51°07' E 001°20'1015.1
2016-Aug-27 08:34N 51°02' E 001°35'1111.1
2016-Aug-27 07:33N 50°58' E 001°51'7 6.5
2016-Aug-27 06:33N 50°58' E 001°41'16 7.8
2016-Aug-27 04:30N 51°07' E 001°20'7 7.8
2016-Aug-27 03:33N 51°04' E 001°31'1414.2
2016-Aug-27 02:33N 50°58' E 001°51'0 0.0
2016-Aug-27 01:33N 50°58' E 001°51'9 9.3
2016-Aug-27 00:33N 51°01' E 001°37'1312.6
2016-Aug-26 23:33N 51°07' E 001°20'6 5.9
2016-Aug-26 22:34N 51°05' E 001°29'1615.6
2016-Aug-26 21:33N 50°58' E 001°51'0 0.1
2016-Aug-26 20:33N 50°58' E 001°51'1817.8
2016-Aug-26 19:33N 51°05' E 001°25'4 3.7
2016-Aug-26 18:33N 51°07' E 001°20'1515.2
2016-Aug-26 17:33N 50°60' E 001°41'7 6.6
2016-Aug-26 16:34N 50°58' E 001°51'1110.6
2016-Aug-26 15:33N 51°01' E 001°35'1111.3
2016-Aug-26 14:33N 51°07' E 001°20'6 6.0
2016-Aug-26 13:33N 51°05' E 001°29'1615.6
2016-Aug-26 12:33N 50°58' E 001°51'2 1.5
2016-Aug-26 11:33N 50°58' E 001°49'1817.5
2016-Aug-26 10:34N 51°06' E 001°23'3 2.6
2016-Aug-26 09:33N 51°07' E 001°20'1313.1
2016-Aug-26 08:33N 51°02' E 001°39'9 8.5
2016-Aug-26 07:33N 50°58' E 001°51'5 4.8
2016-Aug-26 06:33N 50°58' E 001°43'17 8.4
2016-Aug-26 04:29N 51°07' E 001°20'7 7.1
2016-Aug-26 03:33N 51°06' E 001°30'1515.0
2016-Aug-26 02:34N 50°58' E 001°51'2 1.7
2016-Aug-26 01:33N 50°58' E 001°48'1616.0
2016-Aug-26 00:33N 51°05' E 001°25'4 3.9
2016-Aug-25 23:33N 51°07' E 001°20'1414.4
2016-Aug-25 22:33N 51°00' E 001°40'7 7.3
2016-Aug-25 21:33N 50°58' E 001°51'1010.0
2016-Aug-25 20:33N 51°01' E 001°36'1211.1
2016-Aug-25 19:30N 51°07' E 001°20'6 5.9
2016-Aug-25 18:33N 51°06' E 001°29'1515.5
2016-Aug-25 17:34N 50°58' E 001°50'1 0.7
2016-Aug-25 16:33N 50°58' E 001°51'1616.1
2016-Aug-25 15:33N 51°04' E 001°27'5 5.4
2016-Aug-25 14:33N 51°07' E 001°20'1010.0
2016-Aug-25 13:34N 51°03' E 001°34'1211.6
2016-Aug-25 12:33N 50°58' E 001°51'4 4.2
2016-Aug-25 11:34N 50°58' E 001°44'1414.5
2016-Aug-25 10:33N 51°05' E 001°24'3 3.4
2016-Aug-25 09:33N 51°07' E 001°20'1212.4
2016-Aug-25 08:34N 51°01' E 001°37'9 9.3
2016-Aug-25 07:33N 50°58' E 001°51'6 6.2
2016-Aug-25 06:34N 50°58' E 001°41'16 8.2
2016-Aug-25 04:33N 51°07' E 001°20'9 8.8
2016-Aug-25 03:34N 51°04' E 001°33'1312.9
2016-Aug-25 02:34N 50°58' E 001°51'0 0.0
2016-Aug-25 01:33N 50°58' E 001°51'1313.3
2016-Aug-25 00:34N 51°03' E 001°31'9 8.4
2016-Aug-24 23:33N 51°07' E 001°20'7 6.8
2016-Aug-24 22:33N 51°05' E 001°30'1514.9
2016-Aug-24 21:33N 50°58' E 001°51'0 0.0
2016-Aug-24 20:33N 50°58' E 001°51'1615.9
2016-Aug-24 19:34N 51°04' E 001°28'6 5.4
2016-Aug-24 18:29N 51°07' E 001°20'1415.4
2016-Aug-24 17:33N 51°00' E 001°40'7 7.3
2016-Aug-24 16:34N 50°58' E 001°51'9 9.0
2016-Aug-24 15:33N 51°00' E 001°37'1312.3
2016-Aug-24 14:30N 51°07' E 001°20'5 4.8
2016-Aug-24 13:33N 51°06' E 001°27'1717.0
2016-Aug-24 12:33N 50°58' E 001°51'0 0.0
2016-Aug-24 11:33N 50°58' E 001°51'1616.4
2016-Aug-24 10:34N 51°04' E 001°27'5 4.3
2016-Aug-24 09:20N 51°07' E 001°20'810.7
2016-Aug-24 08:33N 51°04' E 001°32'1313.3
2016-Aug-24 07:33N 50°58' E 001°51'4 3.6
2016-Aug-24 06:34N 50°58' E 001°45'18 8.9
2016-Aug-24 04:29N 51°07' E 001°20'7 7.9
2016-Aug-24 03:33N 51°05' E 001°31'1414.2
2016-Aug-24 02:33N 50°58' E 001°51'0 0.1
2016-Aug-24 01:33N 50°58' E 001°51'1717.1
2016-Aug-24 00:33N 51°04' E 001°25'5 4.7
2016-Aug-23 23:32N 51°07' E 001°20'1616.5
2016-Aug-23 22:33N 50°59' E 001°42'6 5.9
2016-Aug-23 21:33N 50°58' E 001°51'1010.2
2016-Aug-23 20:33N 50°57' E 001°35'1413.3
2016-Aug-23 19:31N 51°07' E 001°20'0 0.3
2016-Aug-23 18:33N 51°07' E 001°21'1818.0
2016-Aug-23 17:34N 50°58' E 001°45'4 3.7
2016-Aug-23 16:33N 50°58' E 001°51'9 9.0
2016-Aug-23 15:33N 50°59' E 001°37'1313.1
2016-Aug-23 14:32N 51°07' E 001°20'5 4.9
2016-Aug-23 13:33N 51°06' E 001°28'1716.7
2016-Aug-23 12:34N 50°58' E 001°51'1 0.5
2016-Aug-23 11:33N 50°58' E 001°50'1716.7
2016-Aug-23 10:34N 51°05' E 001°26'4 3.8
2016-Aug-23 09:27N 51°07' E 001°20'1111.9
2016-Aug-23 08:34N 51°01' E 001°34'1111.3
2016-Aug-23 07:33N 50°58' E 001°51'7 6.6
2016-Aug-23 06:33N 50°58' E 001°41'1615.7
2016-Aug-23 05:33N 51°07' E 001°20'0 0.0
2016-Aug-23 04:33N 51°07' E 001°20'7 6.6
2016-Aug-23 03:34N 51°06' E 001°30'1515.1
2016-Aug-23 02:34N 50°58' E 001°51'0 0.1
2016-Aug-23 01:34N 50°58' E 001°51'1717.4
2016-Aug-23 00:33N 51°04' E 001°25'5 4.7
2016-Aug-22 23:33N 51°07' E 001°20'1313.0
2016-Aug-22 22:34N 51°01' E 001°38'9 8.7
2016-Aug-22 21:33N 50°58' E 001°51'8 7.6
2016-Aug-22 20:33N 50°59' E 001°39'1514.8
2016-Aug-22 19:34N 51°07' E 001°20'3 3.1
2016-Aug-22 18:34N 51°07' E 001°25'1817.6
2016-Aug-22 17:34N 50°58' E 001°50'1 0.8
2016-Aug-22 16:33N 50°58' E 001°51'1716.6
2016-Aug-22 15:34N 51°06' E 001°27'5 4.9
2016-Aug-22 14:33N 51°07' E 001°20'8 8.1
2016-Aug-22 13:34N 51°04' E 001°31'1312.8
2016-Aug-22 12:30N 50°58' E 001°51'2 1.9
2016-Aug-22 11:33N 50°58' E 001°48'1817.7
2016-Aug-22 10:34N 51°06' E 001°23'2 2.2
2016-Aug-22 09:32N 51°07' E 001°20'1312.9
2016-Aug-22 08:33N 51°01' E 001°38'9 9.0
2016-Aug-22 07:33N 50°58' E 001°51'5 5.1
2016-Aug-22 06:33N 50°58' E 001°43'1717.0
2016-Aug-22 05:33N 51°07' E 001°20'0 0.0
2016-Aug-22 04:33N 51°07' E 001°20'1111.4
2016-Aug-22 03:33N 51°03' E 001°37'1110.6
2016-Aug-22 02:33N 50°58' E 001°51'2 2.0
2016-Aug-22 01:34N 50°58' E 001°48'2019.3
2016-Aug-22 00:33N 51°07' E 001°21'0 0.3
2016-Aug-21 23:33N 51°07' E 001°20'1615.8
2016-Aug-21 22:33N 50°59' E 001°42'6 6.1
2016-Aug-21 21:33N 50°58' E 001°51'1010.5
2016-Aug-21 20:34N 50°59' E 001°34'1311.3
2016-Aug-21 19:27N 51°07' E 001°20'4 5.1
2016-Aug-21 18:34N 51°06' E 001°27'1717.0
2016-Aug-21 17:34N 50°58' E 001°51'0 0.1
2016-Aug-21 16:33N 50°58' E 001°51'1817.6
2016-Aug-21 15:34N 51°05' E 001°25'4 3.4
2016-Aug-21 14:26N 51°07' E 001°20'1213.4
2016-Aug-21 13:34N 51°03' E 001°37'10 9.1
2016-Aug-21 12:28N 50°58' E 001°51'3 3.6
2016-Aug-21 11:33N 50°58' E 001°46'1818.4
2016-Aug-21 10:33N 51°07' E 001°21'0 0.3
2016-Aug-21 09:33N 51°07' E 001°20'1515.0
2016-Aug-21 08:33N 50°60' E 001°41'7 6.8
2016-Aug-21 07:33N 50°58' E 001°51'9 9.3
2016-Aug-21 06:33N 50°58' E 001°36'14 4.7
2016-Aug-21 03:32N 51°07' E 001°20'0 0.0
2016-Aug-21 02:32N 51°07' E 001°20'0 0.0
2016-Aug-21 01:30N 51°07' E 001°20'8 8.2
2016-Aug-21 00:34N 51°05' E 001°32'1413.9
2016-Aug-20 23:33N 50°58' E 001°51'2 1.7
2016-Aug-20 22:33N 50°58' E 001°48'1717.1
2016-Aug-20 21:34N 51°06' E 001°24'3 2.9
2016-Aug-20 20:33N 51°07' E 001°20'1212.3
2016-Aug-20 19:34N 51°01' E 001°36'10 9.6
2016-Aug-20 18:33N 50°58' E 001°51'3 2.7
2016-Aug-20 17:33N 50°58' E 001°47'1818.3
2016-Aug-20 16:33N 51°07' E 001°21'1 0.6
2016-Aug-20 15:26N 51°07' E 001°20'3 3.8
2016-Aug-20 14:33N 51°08' E 001°25'1110.6
2016-Aug-20 13:33N 51°01' E 001°38'8 7.7
2016-Aug-20 12:28N 50°58' E 001°51'6 6.5
2016-Aug-20 11:33N 50°58' E 001°42'1612.5
2016-Aug-20 10:16N 51°07' E 001°20'0 0.1
2016-Aug-20 09:30N 51°07' E 001°20'1212.9
2016-Aug-20 08:34N 51°02' E 001°38'9 9.2
2016-Aug-20 07:33N 50°58' E 001°51'5 5.5
2016-Aug-20 06:33N 50°58' E 001°42'1716.5
2016-Aug-20 05:33N 51°07' E 001°20'0 0.0
2016-Aug-20 04:24N 51°07' E 001°20'1112.8
2016-Aug-20 03:33N 51°02' E 001°35'1110.8
2016-Aug-20 02:33N 50°58' E 001°51'1 1.3
2016-Aug-20 01:34N 50°58' E 001°49'1918.7
2016-Aug-20 00:33N 51°07' E 001°22'2 1.4
2016-Aug-19 23:27N 51°07' E 001°20'1112.7
2016-Aug-19 22:34N 51°01' E 001°34'1110.7
2016-Aug-19 21:33N 50°58' E 001°51'6 6.4
2016-Aug-19 20:33N 50°59' E 001°41'1615.5
2016-Aug-19 19:33N 51°07' E 001°20'0 0.0
2016-Aug-19 18:32N 51°07' E 001°20'1616.4
2016-Aug-19 17:34N 50°59' E 001°42'6 5.6
2016-Aug-19 16:33N 50°58' E 001°51'1211.8
2016-Aug-19 15:33N 51°01' E 001°33'10 8.7
2016-Aug-19 14:24N 51°07' E 001°20'5 5.5
2016-Aug-19 13:33N 51°07' E 001°27'1616.3
2016-Aug-19 12:33N 50°58' E 001°49'1 1.2
2016-Aug-19 11:33N 50°58' E 001°51'1615.9
2016-Aug-19 10:33N 51°04' E 001°27'6 5.9
2016-Aug-19 09:33N 51°07' E 001°20'1010.4
2016-Aug-19 08:33N 51°03' E 001°35'1111.2
2016-Aug-19 07:33N 50°58' E 001°51'5 5.1
2016-Aug-19 06:33N 50°58' E 001°43'1716.3
2016-Aug-19 05:31N 51°07' E 001°20'0 0.0
2016-Aug-19 04:33N 51°07' E 001°20'8 7.7
2016-Aug-19 03:33N 51°05' E 001°32'1413.9
2016-Aug-19 02:34N 50°58' E 001°51'0 0.1
2016-Aug-19 01:33N 50°58' E 001°51'1313.4
2016-Aug-19 00:33N 51°03' E 001°31'8 8.4
2016-Aug-18 23:33N 51°07' E 001°20'8 8.3
2016-Aug-18 22:33N 51°04' E 001°32'1313.3
2016-Aug-18 21:33N 50°58' E 001°51'1 1.2
2016-Aug-18 20:34N 50°58' E 001°49'1817.6
2016-Aug-18 19:34N 51°05' E 001°23'3 2.8
2016-Aug-18 18:32N 51°07' E 001°20'1616.6
2016-Aug-18 17:33N 50°59' E 001°42'6 5.7
2016-Aug-18 16:34N 50°58' E 001°51'1111.1
2016-Aug-18 15:34N 51°00' E 001°34'1111.2
2016-Aug-18 14:33N 51°07' E 001°20'4 3.6
2016-Aug-18 13:33N 51°07' E 001°26'1717.4
2016-Aug-18 12:34N 50°58' E 001°50'1 0.6
2016-Aug-18 11:33N 50°58' E 001°51'1717.5
2016-Aug-18 10:33N 51°05' E 001°25'4 4.2
2016-Aug-18 09:33N 51°07' E 001°20'1111.0
2016-Aug-18 08:34N 51°02' E 001°35'1110.6
2016-Aug-18 07:33N 50°58' E 001°51'5 5.2
2016-Aug-18 06:34N 50°58' E 001°43'1715.4
2016-Aug-18 05:27N 51°07' E 001°20'  

Dump ship's entire track history